Главная страница
METAR-TAF:

METAR-TAF

Аэропорты :

Сан-Хуан, Пуэрто-Рико, США

широта: 18-27-24N, долгота: 066-05-54W, высота над уровнем моря: 3 м

Текущие метеонаблюдения

Эта сводка был подготовлена 47 минут назад, в 12:48 UTC
Ветер 10 Узел от юго-восточный
Температура 24°C
Влажность 89%
Давление 1019 hPa
Видимость: 9.7 км
Отдельные облака на высоте 2000 фута
Сплошная облачность на высоте 6000 фута
небольшой дождь

METAR: TJIG 231248Z 13010KT 6SM -RA SCT020 OVC060 24/22 A3010

Время: 09:35 (13:35 UTC)


TAF: отсутствует

Метеонаблюдения и прогнозы для более 4000 аэропортов (сводки METAR и TAF).

Имеющиеся станции представлены на карте желтыми и красными точками.

Чтобы увидеть название станции, наведите на нее мышь.

Затем щелкните, чтобы увидеть метеонаблюдения и метеопрогнозы.

Управление картой: чтобы увеличить масштаб, щелкните зеленые кнопки с черным крестиком; чтобы уменьшить масштаб, щелкните зеленую кнопку с тире; для просмотра соседних карт щелкайте зеленые стрелки.


METAR-TAF: